Terminal Aerodrome Forecast
Issued by NWS

Current Version | Previous Version | Text Only | Print | Product List | Glossary On
Versions: 1 2 3 4 5 6 7 8 9 10 11 12 13 14
000
FTUS44 KLZK 011100 AAA
TAFBPK
TAF AMD
KBPK 011138Z 0112/0212 09007KT P6SM BKN015
     FM011300 10005KT P6SM BKN010
     FM011900 16010G20KT P6SM OVC030
      TEMPO 0121/0124 5SM TSRA BR OVC025CB
     FM020000 20010KT P6SM BKN040
      TEMPO 0205/0209 5SM TSRA BR OVC025CB
     FM021000 20010KT P6SM VCSH SCT010 BKN150=

USA.gov is the U.S. government's official web portal to all federal, state and local government web resources and services.